sensor_id;sensor_type;location;lat;lon;timestamp;pressure;altitude;pressure_sealevel;temperature;humidity
51123;BME280;37162;41.724;13.346;2023-01-29T17:27:59;96995.94;;;15.16;58.32
51123;BME280;37162;41.724;13.346;2023-01-29T17:30:30;96995.13;;;15.16;58.39
51123;BME280;37162;41.724;13.346;2023-01-29T17:32:57;96989.16;;;15.14;58.57
51123;BME280;37162;41.724;13.346;2023-01-29T17:35:23;96995.72;;;15.18;58.75
51123;BME280;37162;41.724;13.346;2023-01-29T17:37:48;96994.31;;;15.15;58.94
51123;BME280;37162;41.724;13.346;2023-01-29T17:40:27;97012.56;;;15.25;59.08
51123;BME280;37162;41.724;13.346;2023-01-29T17:42:54;97007.00;;;15.26;58.89
51123;BME280;37162;41.724;13.346;2023-01-29T17:45:19;97004.91;;;15.28;58.76
51123;BME280;37162;41.724;13.346;2023-01-29T17:47:44;96994.25;;;15.22;58.57
51123;BME280;37162;41.724;13.346;2023-01-29T17:50:24;97004.09;;;15.28;58.34
51123;BME280;37162;41.724;13.346;2023-01-29T17:52:50;96998.38;;;15.24;58.42
51123;BME280;37162;41.724;13.346;2023-01-29T17:55:17;97017.66;;;15.33;58.26
51123;BME280;37162;41.724;13.346;2023-01-29T17:57:42;97007.22;;;15.25;58.01
51123;BME280;37162;41.724;13.346;2023-01-29T18:00:20;97024.44;;;15.36;58.21
51123;BME280;37162;41.724;13.346;2023-01-29T18:02:47;97020.78;;;15.30;58.19
51123;BME280;37162;41.724;13.346;2023-01-29T18:05:13;97031.19;;;15.38;58.03
51123;BME280;37162;41.724;13.346;2023-01-29T18:07:40;97027.50;;;15.39;57.99
51123;BME280;37162;41.724;13.346;2023-01-29T18:10:12;97024.84;;;15.39;57.91
51123;BME280;37162;41.724;13.346;2023-01-29T18:12:39;97021.75;;;15.36;57.85
51123;BME280;37162;41.724;13.346;2023-01-29T18:15:06;97021.09;;;15.40;57.84
51123;BME280;37162;41.724;13.346;2023-01-29T18:17:31;97006.56;;;15.29;58.08
51123;BME280;37162;41.724;13.346;2023-01-29T18:19:57;97012.03;;;15.41;57.92
51123;BME280;37162;41.724;13.346;2023-01-29T18:22:24;97014.78;;;15.34;57.74
51123;BME280;37162;41.724;13.346;2023-01-29T18:24:49;97022.75;;;15.41;57.60
51123;BME280;37162;41.724;13.346;2023-01-29T18:27:15;97020.69;;;15.43;57.79
51123;BME280;37162;41.724;13.346;2023-01-29T18:29:40;97024.19;;;15.44;57.70
51123;BME280;37162;41.724;13.346;2023-01-29T18:32:05;97015.97;;;15.39;57.81
51123;BME280;37162;41.724;13.346;2023-01-29T18:34:31;97017.78;;;15.45;57.85
51123;BME280;37162;41.724;13.346;2023-01-29T18:36:56;97018.59;;;15.45;57.84
51123;BME280;37162;41.724;13.346;2023-01-29T18:39:23;97006.69;;;15.41;57.87
51123;BME280;37162;41.724;13.346;2023-01-29T18:41:48;97003.19;;;15.41;57.89
51123;BME280;37162;41.724;13.346;2023-01-29T18:44:17;97009.13;;;15.43;58.03
51123;BME280;37162;41.724;13.346;2023-01-29T18:46:43;97009.69;;;15.51;57.94
51123;BME280;37162;41.724;13.346;2023-01-29T18:49:08;97017.94;;;15.50;57.79
51123;BME280;37162;41.724;13.346;2023-01-29T18:51:34;97007.47;;;15.48;57.65
51123;BME280;37162;41.724;13.346;2023-01-29T18:54:00;97014.00;;;15.52;57.70
51123;BME280;37162;41.724;13.346;2023-01-29T18:56:25;97013.81;;;15.54;57.70
51123;BME280;37162;41.724;13.346;2023-01-29T18:58:53;97019.16;;;15.54;57.56
51123;BME280;37162;41.724;13.346;2023-01-29T19:01:19;97021.84;;;15.54;57.64
51123;BME280;37162;41.724;13.346;2023-01-29T19:03:44;96980.22;;;15.26;57.44
51123;BME280;37162;41.724;13.346;2023-01-29T19:06:10;96990.22;;;15.38;57.52
51123;BME280;37162;41.724;13.346;2023-01-29T19:08:36;97018.13;;;15.55;57.55
51123;BME280;37162;41.724;13.346;2023-01-29T19:11:02;97012.81;;;15.48;57.63
51123;BME280;37162;41.724;13.346;2023-01-29T19:13:33;97028.84;;;15.55;57.52
51123;BME280;37162;41.724;13.346;2023-01-29T19:15:59;97011.38;;;15.46;57.64
51123;BME280;37162;41.724;13.346;2023-01-29T19:18:25;97023.31;;;15.50;57.56
51123;BME280;37162;41.724;13.346;2023-01-29T19:20:52;97027.19;;;15.54;57.44
51123;BME280;37162;41.724;13.346;2023-01-29T19:23:20;97012.19;;;15.46;57.43
51123;BME280;37162;41.724;13.346;2023-01-29T19:25:46;97021.84;;;15.54;57.52
51123;BME280;37162;41.724;13.346;2023-01-29T19:28:11;97031.50;;;15.55;57.57
51123;BME280;37162;41.724;13.346;2023-01-29T19:30:37;97030.69;;;15.54;57.72
51123;BME280;37162;41.724;13.346;2023-01-29T19:33:03;97008.16;;;15.37;57.39
51123;BME280;37162;41.724;13.346;2023-01-29T19:35:28;97018.38;;;15.47;57.62
51123;BME280;37162;41.724;13.346;2023-01-29T19:37:54;97038.50;;;15.56;57.55
51123;BME280;37162;41.724;13.346;2023-01-29T19:40:19;97038.50;;;15.56;57.70
51123;BME280;37162;41.724;13.346;2023-01-29T19:42:45;97037.44;;;15.57;57.83
51123;BME280;37162;41.724;13.346;2023-01-29T19:45:11;97022.03;;;15.52;57.85
51123;BME280;37162;41.724;13.346;2023-01-29T19:47:40;97035.41;;;15.59;57.90
51123;BME280;37162;41.724;13.346;2023-01-29T19:50:09;97039.94;;;15.58;57.61
51123;BME280;37162;41.724;13.346;2023-01-29T19:52:35;97036.44;;;15.58;57.35
51123;BME280;37162;41.724;13.346;2023-01-29T19:55:03;97044.47;;;15.58;57.19
51123;BME280;37162;41.724;13.346;2023-01-29T19:57:29;97030.06;;;15.52;57.27
51123;BME280;37162;41.724;13.346;2023-01-29T19:59:56;97031.75;;;15.47;57.16
51123;BME280;37162;41.724;13.346;2023-01-29T20:02:22;97043.84;;;15.56;57.04
51123;BME280;37162;41.724;13.346;2023-01-29T20:04:51;97033.19;;;15.49;57.17
51123;BME280;37162;41.724;13.346;2023-01-29T20:07:17;97046.75;;;15.54;57.04
51123;BME280;37162;41.724;13.346;2023-01-29T20:09:45;97060.16;;;15.54;57.19
51123;BME280;37162;41.724;13.346;2023-01-29T20:12:10;97061.19;;;15.53;57.10
51123;BME280;37162;41.724;13.346;2023-01-29T20:14:37;97063.06;;;15.53;57.24
51123;BME280;37162;41.724;13.346;2023-01-29T20:17:03;97060.56;;;15.51;57.17
51123;BME280;37162;41.724;13.346;2023-01-29T20:19:29;97062.44;;;15.51;57.25
51123;BME280;37162;41.724;13.346;2023-01-29T20:21:55;97027.53;;;15.32;57.39
51123;BME280;37162;41.724;13.346;2023-01-29T20:24:20;97064.28;;;15.50;57.30
51123;BME280;37162;41.724;13.346;2023-01-29T20:26:47;97041.47;;;15.41;57.19
51123;BME280;37162;41.724;13.346;2023-01-29T20:29:12;97054.22;;;15.46;57.30
51123;BME280;37162;41.724;13.346;2023-01-29T20:31:39;97059.34;;;15.47;57.33
51123;BME280;37162;41.724;13.346;2023-01-29T20:34:05;97059.34;;;15.47;57.19
51123;BME280;37162;41.724;13.346;2023-01-29T20:36:30;97044.81;;;15.37;57.30
51123;BME280;37162;41.724;13.346;2023-01-29T20:38:56;97062.03;;;15.47;57.22
51123;BME280;37162;41.724;13.346;2023-01-29T20:41:21;97041.31;;;15.36;57.29
51123;BME280;37162;41.724;13.346;2023-01-29T20:43:47;97056.97;;;15.39;57.48
51123;BME280;37162;41.724;13.346;2023-01-29T20:46:15;97053.19;;;15.47;57.49
51123;BME280;37162;41.724;13.346;2023-01-29T20:48:41;97060.16;;;15.48;57.51
51123;BME280;37162;41.724;13.346;2023-01-29T20:51:11;97069.88;;;15.49;57.53
51123;BME280;37162;41.724;13.346;2023-01-29T20:53:39;97049.13;;;15.38;57.39
51123;BME280;37162;41.724;13.346;2023-01-29T20:56:08;97063.47;;;15.50;57.15
51123;BME280;37162;41.724;13.346;2023-01-29T20:58:34;97068.81;;;15.50;57.05
51123;BME280;37162;41.724;13.346;2023-01-29T21:00:59;97063.06;;;15.46;56.91
51123;BME280;37162;41.724;13.346;2023-01-29T21:03:25;97057.13;;;15.44;57.10
51123;BME280;37162;41.724;13.346;2023-01-29T21:05:51;97072.31;;;15.50;57.03
51123;BME280;37162;41.724;13.346;2023-01-29T21:08:16;97064.53;;;15.42;56.91
51123;BME280;37162;41.724;13.346;2023-01-29T21:10:42;97071.50;;;15.50;56.96
51123;BME280;37162;41.724;13.346;2023-01-29T21:13:10;97077.69;;;15.50;56.99
51123;BME280;37162;41.724;13.346;2023-01-29T21:15:35;97068.66;;;15.45;56.76
51123;BME280;37162;41.724;13.346;2023-01-29T21:18:01;97087.56;;;15.50;56.93
51123;BME280;37162;41.724;13.346;2023-01-29T21:20:29;97070.53;;;15.44;56.90
51123;BME280;37162;41.724;13.346;2023-01-29T21:22:55;97083.03;;;15.50;57.03
51123;BME280;37162;41.724;13.346;2023-01-29T21:25:20;97087.34;;;15.51;56.95
51123;BME280;37162;41.724;13.346;2023-01-29T21:27:47;97085.72;;;15.50;57.01
51123;BME280;37162;41.724;13.346;2023-01-29T21:30:12;97093.75;;;15.50;56.78
51123;BME280;37162;41.724;13.346;2023-01-29T21:32:38;97088.38;;;15.50;56.95
51123;BME280;37162;41.724;13.346;2023-01-29T21:35:03;97083.44;;;15.47;56.69
51123;BME280;37162;41.724;13.346;2023-01-29T21:37:29;97091.06;;;15.50;56.96
51123;BME280;37162;41.724;13.346;2023-01-29T21:39:54;97076.28;;;15.41;56.86
51123;BME280;37162;41.724;13.346;2023-01-29T21:42:20;97075.06;;;15.44;57.16
51123;BME280;37162;41.724;13.346;2023-01-29T21:45:05;97082.22;;;15.50;57.10
51123;BME280;37162;41.724;13.346;2023-01-29T21:47:30;97084.66;;;15.51;57.55
51123;BME280;37162;41.724;13.346;2023-01-29T21:49:56;97090.84;;;15.52;57.45
51123;BME280;37162;41.724;13.346;2023-01-29T21:52:21;97088.97;;;15.52;57.50
51123;BME280;37162;41.724;13.346;2023-01-29T21:54:46;97092.28;;;15.54;57.53
51123;BME280;37162;41.724;13.346;2023-01-29T21:57:14;97082.63;;;15.47;57.59
51123;BME280;37162;41.724;13.346;2023-01-29T21:59:40;97086.09;;;15.54;57.47
51123;BME280;37162;41.724;13.346;2023-01-29T22:02:10;97076.84;;;15.50;57.35
51123;BME280;37162;41.724;13.346;2023-01-29T22:04:37;97086.94;;;15.54;57.18
51123;BME280;37162;41.724;13.346;2023-01-29T22:07:03;97084.25;;;15.54;56.93
51123;BME280;37162;41.724;13.346;2023-01-29T22:09:28;97062.50;;;15.38;56.96
51123;BME280;37162;41.724;13.346;2023-01-29T22:11:54;97087.16;;;15.53;56.92
51123;BME280;37162;41.724;13.346;2023-01-29T22:14:19;97083.63;;;15.52;56.78
51123;BME280;37162;41.724;13.346;2023-01-29T22:16:45;97077.28;;;15.47;56.87
51123;BME280;37162;41.724;13.346;2023-01-29T22:19:11;97081.59;;;15.48;56.64
51123;BME280;37162;41.724;13.346;2023-01-29T22:21:37;97085.72;;;15.50;56.85
51123;BME280;37162;41.724;13.346;2023-01-29T22:24:02;97063.97;;;15.33;56.68
51123;BME280;37162;41.724;13.346;2023-01-29T22:26:28;97084.28;;;15.48;56.88
51123;BME280;37162;41.724;13.346;2023-01-29T22:28:55;97080.59;;;15.42;56.88
51123;BME280;37162;41.724;13.346;2023-01-29T22:31:20;97096.84;;;15.47;56.77
51123;BME280;37162;41.724;13.346;2023-01-29T22:33:46;97080.03;;;15.33;56.63
51123;BME280;37162;41.724;13.346;2023-01-29T22:36:11;97104.06;;;15.47;56.83
51123;BME280;37162;41.724;13.346;2023-01-29T22:38:37;97067.97;;;15.24;56.92
51123;BME280;37162;41.724;13.346;2023-01-29T22:41:02;97101.59;;;15.45;56.92
51123;BME280;37162;41.724;13.346;2023-01-29T22:43:28;97114.16;;;15.45;56.88
51123;BME280;37162;41.724;13.346;2023-01-29T22:45:54;97106.38;;;15.43;56.73
51123;BME280;37162;41.724;13.346;2023-01-29T22:48:21;97112.53;;;15.44;56.82
51123;BME280;37162;41.724;13.346;2023-01-29T22:50:47;97110.88;;;15.43;56.78
51123;BME280;37162;41.724;13.346;2023-01-29T22:53:48;97096.09;;;15.33;56.90
51123;BME280;37162;41.724;13.346;2023-01-29T22:56:14;97103.69;;;15.43;56.64
51123;BME280;37162;41.724;13.346;2023-01-29T22:58:39;97101.19;;;15.42;56.95
51123;BME280;37162;41.724;13.346;2023-01-29T23:01:06;97098.53;;;15.42;56.92
51123;BME280;37162;41.724;13.346;2023-01-29T23:03:31;97093.81;;;15.37;57.03
51123;BME280;37162;41.724;13.346;2023-01-29T23:06:02;97111.50;;;15.45;56.98
51123;BME280;37162;41.724;13.346;2023-01-29T23:08:33;97098.09;;;15.45;56.70
51123;BME280;37162;41.724;13.346;2023-01-29T23:11:04;97100.78;;;15.45;56.71
51123;BME280;37162;41.724;13.346;2023-01-29T23:13:48;97080.03;;;15.33;56.57
51123;BME280;37162;41.724;13.346;2023-01-29T23:16:15;97101.81;;;15.44;56.65
51123;BME280;37162;41.724;13.346;2023-01-29T23:18:41;97100.78;;;15.45;56.62
51123;BME280;37162;41.724;13.346;2023-01-29T23:21:07;97082.28;;;15.37;56.38
51123;BME280;37162;41.724;13.346;2023-01-29T23:23:35;97091.13;;;15.44;56.50
51123;BME280;37162;41.724;13.346;2023-01-29T23:26:02;97082.06;;;15.38;56.51
51123;BME280;37162;41.724;13.346;2023-01-29T23:28:46;97047.22;;;15.13;56.33
51123;BME280;37162;41.724;13.346;2023-01-29T23:31:12;97090.31;;;15.43;56.46
51123;BME280;37162;41.724;13.346;2023-01-29T23:33:38;97084.53;;;15.40;56.39
51123;BME280;37162;41.724;13.346;2023-01-29T23:36:04;97086.59;;;15.44;56.54
51123;BME280;37162;41.724;13.346;2023-01-29T23:38:30;97091.13;;;15.44;56.54
51123;BME280;37162;41.724;13.346;2023-01-29T23:40:55;97084.09;;;15.43;56.33
51123;BME280;37162;41.724;13.346;2023-01-29T23:43:26;97065.19;;;15.38;56.46
51123;BME280;37162;41.724;13.346;2023-01-29T23:45:53;97062.72;;;15.36;56.39
51123;BME280;37162;41.724;13.346;2023-01-29T23:48:18;97074.44;;;15.42;56.35
51123;BME280;37162;41.724;13.346;2023-01-29T23:50:45;97060.88;;;15.37;56.46
51123;BME280;37162;41.724;13.346;2023-01-29T23:53:10;97068.25;;;15.41;56.40
51123;BME280;37162;41.724;13.346;2023-01-29T23:55:35;97072.56;;;15.42;56.42
51123;BME280;37162;41.724;13.346;2023-01-29T23:58:01;97069.06;;;15.42;56.68
